createdAt,value
2022-09-17T00:00:23.726Z,3.17
2022-09-17T00:02:55.823Z,2.75
2022-09-17T00:05:23.371Z,3.50
2022-09-17T00:07:50.198Z,3.10
2022-09-17T00:10:16.849Z,2.70
2022-09-17T00:12:43.159Z,2.80
2022-09-17T00:15:09.735Z,2.42
2022-09-17T00:17:36.018Z,3.40
2022-09-17T00:20:02.681Z,2.65
2022-09-17T00:22:28.946Z,2.75
2022-09-17T00:24:55.278Z,2.55
2022-09-17T00:27:21.568Z,4.13
2022-09-17T00:29:48.217Z,3.45
2022-09-17T00:32:14.514Z,3.97
2022-09-17T00:34:42.193Z,2.58
2022-09-17T00:37:08.456Z,3.28
2022-09-17T00:39:34.714Z,2.05
2022-09-17T00:42:00.976Z,2.53
2022-09-17T00:44:46.933Z,2.85
2022-09-17T00:47:16.303Z,2.55
2022-09-17T00:49:42.656Z,2.75
2022-09-17T00:52:11.103Z,2.78
2022-09-17T00:54:38.752Z,2.83
2022-09-17T00:57:05.084Z,3.17
2022-09-17T00:59:31.425Z,2.70
2022-09-17T01:01:58.011Z,2.92
2022-09-17T01:04:25.721Z,2.47
2022-09-17T01:06:57.942Z,2.17
2022-09-17T01:09:31.554Z,2.30
2022-09-17T01:12:07.269Z,3.33
2022-09-17T01:14:46.473Z,2.40
2022-09-17T01:17:35.910Z,2.10
2022-09-17T01:20:02.142Z,2.40
2022-09-17T01:22:28.403Z,1.95
2022-09-17T01:25:14.012Z,2.45
2022-09-17T01:27:44.997Z,2.10
2022-09-17T01:30:32.362Z,2.40
2022-09-17T01:33:05.181Z,1.90
2022-09-17T01:35:38.783Z,2.80
2022-09-17T01:38:05.030Z,2.08
2022-09-17T01:40:40.213Z,1.65
2022-09-17T01:43:10.090Z,2.28
2022-09-17T01:45:46.109Z,1.60
2022-09-17T01:48:17.023Z,1.48
2022-09-17T01:50:47.864Z,1.52
2022-09-17T01:53:15.763Z,1.52
2022-09-17T01:55:43.386Z,1.60
2022-09-17T01:58:09.650Z,1.90
2022-09-17T02:00:37.450Z,1.30
2022-09-17T02:03:09.795Z,1.65
2022-09-17T02:05:41.863Z,1.65
2022-09-17T02:08:13.530Z,1.75
2022-09-17T02:10:42.251Z,2.10
2022-09-17T02:13:10.444Z,2.03
2022-09-17T02:15:41.380Z,1.20
2022-09-17T02:18:15.560Z,2.13
2022-09-17T02:20:50.599Z,2.60
2022-09-17T02:23:32.338Z,1.27
2022-09-17T02:26:03.528Z,1.60
2022-09-17T02:28:43.750Z,1.40
2022-09-17T02:31:10.227Z,1.20
2022-09-17T02:33:37.892Z,1.65
2022-09-17T02:36:04.239Z,1.52
2022-09-17T02:38:31.153Z,1.50
2022-09-17T02:41:17.797Z,2.03
2022-09-17T02:44:04.111Z,1.73
2022-09-17T02:46:42.913Z,1.90
2022-09-17T02:49:09.274Z,1.88
2022-09-17T02:51:53.696Z,1.52
2022-09-17T02:54:29.414Z,1.65
2022-09-17T02:57:04.979Z,1.90
2022-09-17T02:59:34.580Z,1.63
2022-09-17T03:02:03.622Z,1.63
2022-09-17T03:04:30.785Z,1.95
2022-09-17T03:06:59.430Z,1.60
2022-09-17T03:09:26.035Z,1.90
2022-09-17T03:11:52.316Z,1.85
2022-09-17T03:14:20.661Z,2.00
2022-09-17T03:16:46.992Z,1.75
2022-09-17T03:19:13.305Z,1.85
2022-09-17T03:21:39.572Z,1.90
2022-09-17T03:24:05.991Z,2.10
2022-09-17T03:26:32.268Z,1.90
2022-09-17T03:28:58.931Z,2.10
2022-09-17T03:31:25.421Z,1.92
2022-09-17T03:33:51.774Z,2.00
2022-09-17T03:36:18.075Z,2.05
2022-09-17T03:38:44.360Z,2.63
2022-09-17T03:41:11.303Z,1.95
2022-09-17T03:43:37.583Z,2.42
2022-09-17T03:46:03.967Z,1.98
2022-09-17T03:48:30.362Z,2.42
2022-09-17T03:50:56.809Z,2.75
2022-09-17T03:53:23.234Z,1.90
2022-09-17T03:55:49.734Z,2.67
2022-09-17T03:58:15.996Z,2.20
2022-09-17T04:00:42.965Z,2.92
2022-09-17T04:03:09.247Z,2.78
2022-09-17T04:05:35.542Z,2.30
2022-09-17T04:08:01.920Z,2.55
2022-09-17T04:10:29.183Z,4.55
2022-09-17T04:12:55.431Z,2.45
2022-09-17T04:15:21.694Z,2.47
2022-09-17T04:17:48.037Z,1.88
2022-09-17T04:20:14.399Z,2.75
2022-09-17T04:22:41.371Z,2.08
2022-09-17T04:25:07.811Z,2.95
2022-09-17T04:27:34.090Z,2.80
2022-09-17T04:30:01.500Z,1.80
2022-09-17T04:32:27.778Z,1.80
2022-09-17T04:34:54.047Z,2.25
2022-09-17T04:37:20.512Z,1.77
2022-09-17T04:39:46.806Z,1.42
2022-09-17T04:42:13.056Z,1.98
2022-09-17T04:44:39.363Z,2.10
2022-09-17T04:47:05.688Z,1.95
2022-09-17T04:49:32.723Z,2.33
2022-09-17T04:51:58.992Z,2.10
2022-09-17T04:54:25.271Z,1.58
2022-09-17T04:56:51.602Z,1.85
2022-09-17T04:59:17.929Z,2.67
2022-09-17T05:01:44.546Z,1.92
2022-09-17T05:04:11.057Z,1.50
2022-09-17T05:06:37.375Z,3.58
2022-09-17T05:09:03.686Z,1.60
2022-09-17T05:11:29.958Z,2.85
2022-09-17T05:13:56.342Z,1.75
2022-09-17T05:16:22.804Z,1.60
2022-09-17T05:18:51.078Z,1.50
2022-09-17T05:21:17.979Z,1.50
2022-09-17T05:23:44.296Z,1.50
2022-09-17T05:26:10.568Z,1.75
2022-09-17T05:28:36.851Z,2.20
2022-09-17T05:31:03.451Z,1.40
2022-09-17T05:33:29.855Z,1.40
2022-09-17T05:35:56.163Z,1.70
2022-09-17T05:38:22.450Z,1.40
2022-09-17T05:40:51.486Z,1.27
2022-09-17T05:43:17.830Z,1.40
2022-09-17T05:45:44.145Z,1.77
2022-09-17T05:48:14.357Z,2.45
2022-09-17T05:50:41.268Z,1.35
2022-09-17T05:53:08.970Z,1.25
2022-09-17T05:55:35.222Z,2.42
2022-09-17T05:58:08.625Z,1.40
2022-09-17T06:00:34.873Z,1.35
2022-09-17T06:03:01.172Z,1.30
2022-09-17T06:05:27.455Z,1.27
2022-09-17T06:07:53.722Z,1.60
2022-09-17T06:10:19.977Z,1.45
2022-09-17T06:12:46.283Z,1.33
2022-09-17T06:15:14.594Z,1.25
2022-09-17T06:17:41.487Z,1.50
2022-09-17T06:20:07.991Z,2.30
2022-09-17T06:22:34.267Z,1.58
2022-09-17T06:25:02.205Z,1.60
2022-09-17T06:27:32.775Z,1.40
2022-09-17T06:29:59.186Z,2.30
2022-09-17T06:32:25.535Z,1.30
2022-09-17T06:34:52.441Z,1.55
2022-09-17T06:37:18.774Z,1.20
2022-09-17T06:39:45.699Z,1.80
2022-09-17T06:42:12.381Z,1.30
2022-09-17T06:44:38.803Z,1.85
2022-09-17T06:47:05.189Z,1.48
2022-09-17T06:49:31.526Z,1.52
2022-09-17T06:51:57.855Z,1.73
2022-09-17T06:54:24.127Z,1.65
2022-09-17T06:56:50.410Z,1.50
2022-09-17T06:59:17.588Z,1.60
2022-09-17T07:01:44.090Z,1.60
2022-09-17T07:04:10.390Z,1.70
2022-09-17T07:06:36.641Z,2.28
2022-09-17T07:09:03.003Z,1.90
2022-09-17T07:11:29.953Z,1.50
2022-09-17T07:13:56.251Z,1.70
2022-09-17T07:16:23.907Z,1.60
2022-09-17T07:18:50.586Z,1.50
2022-09-17T07:21:16.843Z,1.65
2022-09-17T07:23:43.176Z,1.35
2022-09-17T07:26:13.449Z,1.52
2022-09-17T07:28:40.117Z,1.30
2022-09-17T07:31:06.594Z,2.20
2022-09-17T07:33:34.055Z,1.33
2022-09-17T07:36:01.210Z,2.38
2022-09-17T07:38:28.294Z,1.90
2022-09-17T07:40:58.712Z,1.58
2022-09-17T07:43:28.698Z,1.30
2022-09-17T07:45:56.795Z,1.40
2022-09-17T07:48:23.283Z,1.20
2022-09-17T07:50:49.621Z,1.50
2022-09-17T07:53:16.193Z,1.67
2022-09-17T07:55:42.466Z,1.63
2022-09-17T07:58:09.019Z,1.10
2022-09-17T08:00:35.290Z,1.70
2022-09-17T08:03:01.628Z,1.85
2022-09-17T08:05:27.968Z,1.80
2022-09-17T08:07:55.429Z,1.73
2022-09-17T08:10:22.676Z,1.10
2022-09-17T08:12:49.441Z,1.30
2022-09-17T08:15:16.667Z,1.10
2022-09-17T08:17:44.366Z,1.33
2022-09-17T08:20:10.924Z,1.35
2022-09-17T08:22:37.383Z,1.25
2022-09-17T08:25:04.463Z,0.82
2022-09-17T08:27:31.428Z,1.10
2022-09-17T08:29:57.776Z,1.20
2022-09-17T08:32:24.367Z,1.70
2022-09-17T08:34:50.777Z,1.65
2022-09-17T08:37:17.338Z,0.98
2022-09-17T08:39:43.602Z,1.30
2022-09-17T08:42:32.685Z,1.30
2022-09-17T08:45:00.871Z,1.05
2022-09-17T08:47:33.442Z,1.55
2022-09-17T08:50:03.220Z,2.33
2022-09-17T08:52:32.393Z,1.05
2022-09-17T08:55:11.401Z,1.75
2022-09-17T08:57:37.662Z,1.00
2022-09-17T09:00:10.199Z,1.60
2022-09-17T09:05:10.637Z,0.90
2022-09-17T09:07:39.563Z,1.30
2022-09-17T09:10:11.727Z,1.20
2022-09-17T09:12:38.495Z,1.50
2022-09-17T09:15:23.275Z,1.42
2022-09-17T09:17:50.898Z,1.30
2022-09-17T09:20:19.108Z,1.67
2022-09-17T09:22:47.064Z,1.23
2022-09-17T09:25:23.299Z,1.40
2022-09-17T09:28:08.020Z,1.23
2022-09-17T09:30:43.029Z,0.82
2022-09-17T09:33:17.727Z,1.40
2022-09-17T09:35:44.441Z,1.42
2022-09-17T09:38:10.713Z,1.30
2022-09-17T09:40:41.510Z,0.90
2022-09-17T09:43:12.891Z,1.40
2022-09-17T09:45:42.260Z,1.70
2022-09-17T09:48:27.297Z,1.10
2022-09-17T09:51:06.552Z,2.20
2022-09-17T09:53:53.356Z,0.98
2022-09-17T09:56:25.834Z,1.65
2022-09-17T09:58:52.118Z,1.52
2022-09-17T10:01:22.814Z,1.13
2022-09-17T10:03:51.825Z,1.45
2022-09-17T10:06:19.654Z,1.15
2022-09-17T10:08:51.902Z,1.02
2022-09-17T10:11:25.983Z,1.10
2022-09-17T10:13:52.535Z,1.38
2022-09-17T10:16:18.912Z,1.17
2022-09-17T10:18:49.502Z,0.95
2022-09-17T10:21:23.068Z,1.20
2022-09-17T10:23:49.877Z,1.00
2022-09-17T10:26:35.539Z,1.38
2022-09-17T10:29:03.456Z,1.45
2022-09-17T10:31:46.317Z,0.70
2022-09-17T10:34:19.039Z,1.35
2022-09-17T10:36:46.010Z,1.55
2022-09-17T10:39:27.485Z,1.20
2022-09-17T10:41:54.912Z,1.55
2022-09-17T10:44:22.288Z,1.20
2022-09-17T10:46:48.746Z,1.88
2022-09-17T10:49:24.996Z,1.42
2022-09-17T10:51:51.536Z,1.45
2022-09-17T10:54:41.231Z,1.25
2022-09-17T10:57:09.825Z,1.40
2022-09-17T10:59:55.031Z,2.08
2022-09-17T11:02:49.002Z,1.85
2022-09-17T11:05:34.078Z,2.10
2022-09-17T11:08:19.001Z,1.33
2022-09-17T11:10:57.524Z,1.75
2022-09-17T11:13:48.354Z,1.75
2022-09-17T11:16:22.426Z,1.77
2022-09-17T11:18:56.559Z,2.30
2022-09-17T11:21:22.818Z,2.20
2022-09-17T11:24:07.718Z,2.38
2022-09-17T11:26:36.738Z,1.80
2022-09-17T11:29:05.796Z,1.92
2022-09-17T11:31:41.421Z,2.20
2022-09-17T11:34:16.745Z,2.65
2022-09-17T11:36:42.995Z,2.03
2022-09-17T11:39:15.929Z,2.20
2022-09-17T11:41:43.729Z,2.15
2022-09-17T11:44:21.916Z,1.75
2022-09-17T11:46:52.514Z,2.13
2022-09-17T11:49:36.396Z,2.22
2022-09-17T11:52:05.701Z,2.03
2022-09-17T11:54:43.623Z,1.98
2022-09-17T11:57:21.306Z,2.33
2022-09-17T11:59:53.999Z,1.90
2022-09-17T12:02:26.351Z,2.05
2022-09-17T12:04:59.716Z,2.10
2022-09-17T12:07:36.614Z,2.00
2022-09-17T12:10:18.018Z,2.25
2022-09-17T12:12:50.186Z,3.05
2022-09-17T12:15:19.958Z,2.28
2022-09-17T12:18:31.027Z,1.73
2022-09-17T12:20:57.481Z,2.15
2022-09-17T12:23:44.161Z,1.50
2022-09-17T12:26:16.322Z,1.77
2022-09-17T12:31:25.231Z,1.48
2022-09-17T12:33:57.491Z,2.38
2022-09-17T12:36:29.694Z,1.52
2022-09-17T12:39:08.040Z,1.95
2022-09-17T12:41:40.443Z,1.20
2022-09-17T12:44:18.786Z,1.50
2022-09-17T12:47:00.548Z,1.30
2022-09-17T12:49:45.455Z,1.60
2022-09-17T12:52:30.839Z,10.07
2022-09-17T12:55:04.528Z,2.90
2022-09-17T12:57:37.605Z,2.38
2022-09-17T13:00:08.369Z,1.30
2022-09-17T13:02:35.138Z,1.80
2022-09-17T13:05:15.072Z,1.73
2022-09-17T13:07:41.404Z,2.60
2022-09-17T13:10:30.753Z,2.25
2022-09-17T13:13:12.025Z,2.13
2022-09-17T13:15:59.029Z,3.08
2022-09-17T13:18:41.433Z,1.67
2022-09-17T13:23:37.982Z,2.00
2022-09-17T13:26:07.249Z,2.05
2022-09-17T13:28:46.721Z,2.40
2022-09-17T13:31:19.136Z,2.25
2022-09-17T13:33:50.315Z,2.47
2022-09-17T13:36:35.660Z,2.65
2022-09-17T13:39:02.930Z,2.33
2022-09-17T13:41:30.483Z,1.42
2022-09-17T13:43:57.521Z,1.88
2022-09-17T13:46:25.059Z,1.92
2022-09-17T13:48:54.428Z,1.63
2022-09-17T13:51:29.787Z,1.33
2022-09-17T13:54:00.942Z,1.33
2022-09-17T13:56:36.604Z,1.55
2022-09-17T13:59:08.026Z,1.10
2022-09-17T14:01:52.866Z,1.55
2022-09-17T14:04:37.610Z,1.40
2022-09-17T14:07:23.857Z,2.60
2022-09-17T14:09:57.939Z,1.17
2022-09-17T14:12:48.626Z,1.20
2022-09-17T14:15:33.513Z,1.25
2022-09-17T14:17:59.835Z,1.73
2022-09-17T14:20:26.386Z,1.27
2022-09-17T14:22:57.022Z,1.80
2022-09-17T14:25:29.037Z,1.17
2022-09-17T14:28:00.359Z,1.80
2022-09-17T14:30:29.192Z,2.33
2022-09-17T14:33:01.239Z,1.73
2022-09-17T14:35:35.732Z,1.52
2022-09-17T14:38:11.813Z,1.75
2022-09-17T14:40:42.050Z,1.65
2022-09-17T14:43:15.746Z,1.60
2022-09-17T14:45:42.835Z,1.73
2022-09-17T14:48:28.054Z,3.03
2022-09-17T14:51:13.281Z,3.50
2022-09-17T14:53:39.539Z,2.40
2022-09-17T14:56:09.650Z,2.53
2022-09-17T14:58:37.546Z,2.38
2022-09-17T15:01:03.868Z,2.75
2022-09-17T15:03:30.210Z,2.50
2022-09-17T15:05:56.518Z,2.95
2022-09-17T15:08:24.292Z,1.85
2022-09-17T15:10:58.457Z,2.40
2022-09-17T15:13:28.722Z,2.47
2022-09-17T15:16:00.218Z,2.40
2022-09-17T15:18:31.499Z,2.83
2022-09-17T15:20:58.887Z,2.58
2022-09-17T15:23:26.525Z,1.70
2022-09-17T15:25:54.789Z,1.85
2022-09-17T15:28:47.288Z,2.63
2022-09-17T15:31:18.114Z,2.03
2022-09-17T15:33:44.842Z,1.15
2022-09-17T15:36:16.901Z,1.40
2022-09-17T15:38:44.560Z,1.00
2022-09-17T15:41:31.275Z,1.70
2022-09-17T15:44:30.438Z,1.25
2022-09-17T15:47:17.573Z,1.30
2022-09-17T15:50:03.627Z,1.30
2022-09-17T15:52:33.947Z,2.45
2022-09-17T15:55:00.611Z,2.40
2022-09-17T15:57:30.462Z,1.70
2022-09-17T16:00:05.226Z,1.98
2022-09-17T16:02:32.010Z,1.63
2022-09-17T16:05:13.839Z,2.13
2022-09-17T16:07:40.563Z,1.60
2022-09-17T16:10:08.611Z,2.75
2022-09-17T16:12:34.959Z,2.13
2022-09-17T16:15:04.001Z,2.05
2022-09-17T16:17:36.262Z,2.80
2022-09-17T16:20:23.424Z,2.17
2022-09-17T16:22:50.400Z,2.40
2022-09-17T16:25:17.362Z,2.70
2022-09-17T16:27:49.241Z,2.92
2022-09-17T16:30:17.607Z,3.05
2022-09-17T16:32:43.913Z,1.92
2022-09-17T16:35:17.053Z,2.85
2022-09-17T16:37:43.855Z,2.55
2022-09-17T16:40:11.885Z,2.65
2022-09-17T16:42:39.182Z,2.40
2022-09-17T16:45:06.559Z,2.40
2022-09-17T16:47:39.962Z,2.92
2022-09-17T16:50:07.440Z,2.40
2022-09-17T16:52:34.381Z,1.95
2022-09-17T16:55:00.766Z,2.30
2022-09-17T16:57:27.390Z,2.08
2022-09-17T16:59:54.678Z,1.85
2022-09-17T17:02:20.958Z,1.50
2022-09-17T17:04:47.454Z,2.00
2022-09-17T17:07:14.081Z,1.80
2022-09-17T17:09:40.348Z,1.10
2022-09-17T17:12:06.820Z,1.42
2022-09-17T17:14:33.094Z,1.90
2022-09-17T17:16:59.767Z,1.83
2022-09-17T17:19:26.973Z,1.40
2022-09-17T17:21:53.526Z,1.85
2022-09-17T17:24:19.823Z,2.17
2022-09-17T17:26:47.555Z,1.52
2022-09-17T17:29:14.409Z,1.80
2022-09-17T17:31:40.788Z,1.70
2022-09-17T17:34:07.293Z,1.77
2022-09-17T17:36:33.695Z,1.77
2022-09-17T17:39:00.537Z,2.17
2022-09-17T17:41:28.138Z,1.80
2022-09-17T17:43:55.018Z,1.33
2022-09-17T17:46:22.134Z,1.30
2022-09-17T17:48:48.839Z,1.30
2022-09-17T17:51:19.038Z,1.40
2022-09-17T17:53:45.575Z,2.03
2022-09-17T17:56:14.293Z,1.30
2022-09-17T17:58:41.842Z,1.08
2022-09-17T18:01:20.073Z,1.23
2022-09-17T18:03:46.479Z,1.42
2022-09-17T18:06:13.186Z,2.20
2022-09-17T18:08:40.374Z,0.93
2022-09-17T18:11:08.177Z,1.60
2022-09-17T18:13:38.163Z,1.15
2022-09-17T18:16:05.394Z,1.23
2022-09-17T18:18:33.371Z,1.45
2022-09-17T18:21:00.744Z,1.42
2022-09-17T18:23:27.479Z,2.17
2022-09-17T18:25:58.050Z,1.83
2022-09-17T18:28:24.954Z,2.53
2022-09-17T18:30:51.329Z,1.77
2022-09-17T18:33:23.662Z,1.80
2022-09-17T18:35:50.299Z,1.92
2022-09-17T18:38:17.050Z,2.00
2022-09-17T18:40:43.802Z,2.47
2022-09-17T18:43:10.156Z,1.80
2022-09-17T18:45:36.520Z,1.35
2022-09-17T18:48:04.772Z,2.38
2022-09-17T18:50:31.157Z,1.98
2022-09-17T18:52:57.476Z,1.40
2022-09-17T18:55:24.114Z,1.67
2022-09-17T18:57:51.254Z,1.90
2022-09-17T19:00:20.174Z,1.58
2022-09-17T19:02:49.215Z,1.60
2022-09-17T19:05:16.226Z,1.50
2022-09-17T19:07:46.250Z,1.45
2022-09-17T19:10:13.001Z,1.77
2022-09-17T19:12:39.451Z,1.77
2022-09-17T19:15:06.208Z,1.55
2022-09-17T19:17:32.507Z,2.20
2022-09-17T19:19:58.786Z,2.05
2022-09-17T19:22:25.095Z,2.08
2022-09-17T19:24:51.429Z,2.53
2022-09-17T19:27:17.711Z,1.85
2022-09-17T19:29:43.993Z,2.30
2022-09-17T19:32:10.514Z,2.15
2022-09-17T19:34:36.790Z,3.38
2022-09-17T19:37:03.848Z,2.38
2022-09-17T19:39:30.209Z,3.10
2022-09-17T19:41:56.719Z,2.78
2022-09-17T19:44:23.719Z,2.60
2022-09-17T19:46:52.775Z,3.00
2022-09-17T19:49:19.275Z,3.42
2022-09-17T19:51:45.556Z,2.83
2022-09-17T19:54:13.943Z,2.60
2022-09-17T19:56:40.233Z,2.65
2022-09-17T19:59:06.579Z,2.90
2022-09-17T20:01:34.769Z,2.63
2022-09-17T20:04:01.415Z,2.78
2022-09-17T20:06:27.736Z,2.53
2022-09-17T20:08:54.372Z,2.55
2022-09-17T20:11:22.122Z,2.40
2022-09-17T20:13:48.618Z,3.08
2022-09-17T20:16:16.765Z,2.50
2022-09-17T20:18:44.577Z,3.25
2022-09-17T20:21:12.162Z,2.67
2022-09-17T20:23:38.647Z,2.83
2022-09-17T20:26:05.309Z,3.03
2022-09-17T20:28:31.876Z,2.47
2022-09-17T20:31:05.301Z,4.25
2022-09-17T20:33:31.776Z,2.70
2022-09-17T20:36:01.760Z,2.25
2022-09-17T20:41:15.009Z,2.17
2022-09-17T20:43:42.971Z,2.38
2022-09-17T20:46:10.158Z,1.90
2022-09-17T20:48:37.035Z,2.70
2022-09-17T20:51:05.123Z,2.33
2022-09-17T20:53:33.796Z,3.17
2022-09-17T20:56:03.732Z,2.40
2022-09-17T20:58:30.678Z,2.05
2022-09-17T21:01:13.306Z,2.28
2022-09-17T21:03:39.949Z,2.28
2022-09-17T21:06:06.418Z,2.63
2022-09-17T21:08:32.735Z,2.08
2022-09-17T21:11:04.265Z,2.75
2022-09-17T21:13:30.538Z,2.47
2022-09-17T21:15:57.866Z,2.42
2022-09-17T21:18:24.169Z,2.22
2022-09-17T21:20:50.602Z,2.75
2022-09-17T21:23:16.891Z,2.60
2022-09-17T21:25:43.694Z,2.90
2022-09-17T21:28:09.967Z,2.10
2022-09-17T21:30:36.248Z,2.38
2022-09-17T21:33:02.608Z,2.65
2022-09-17T21:35:32.667Z,2.58
2022-09-17T21:37:58.958Z,2.08
2022-09-17T21:40:25.272Z,2.30
2022-09-17T21:42:51.570Z,2.33
2022-09-17T21:45:18.120Z,4.03
2022-09-17T21:47:44.581Z,13.38
2022-09-17T21:50:10.897Z,20.20
2022-09-17T21:52:37.243Z,26.73
2022-09-17T21:55:03.805Z,29.08
2022-09-17T21:57:31.398Z,34.72
2022-09-17T21:59:58.602Z,35.13
2022-09-17T22:02:24.934Z,28.90
2022-09-17T22:04:51.266Z,28.23
2022-09-17T22:07:17.559Z,19.48
2022-09-17T22:09:43.983Z,12.25
2022-09-17T22:12:11.173Z,9.95
2022-09-17T22:14:38.859Z,10.82
2022-09-17T22:17:05.171Z,12.02
2022-09-17T22:19:31.455Z,25.73
2022-09-17T22:21:57.715Z,52.42
2022-09-17T22:24:24.630Z,78.40
2022-09-17T22:26:56.562Z,76.65
2022-09-17T22:29:24.565Z,71.97
2022-09-17T22:31:50.972Z,60.92
2022-09-17T22:34:18.442Z,35.38
2022-09-17T22:36:44.994Z,20.05
2022-09-17T22:39:11.547Z,13.73
2022-09-17T22:41:42.733Z,10.13
2022-09-17T22:44:10.802Z,6.85
2022-09-17T22:46:39.362Z,7.03
2022-09-17T22:49:06.622Z,5.68
2022-09-17T22:51:33.125Z,7.60
2022-09-17T22:54:00.095Z,6.95
2022-09-17T22:56:27.534Z,8.02
2022-09-17T22:58:55.290Z,8.60
2022-09-17T23:01:23.115Z,6.75
2022-09-17T23:03:51.042Z,6.25
2022-09-17T23:06:19.427Z,5.35
2022-09-17T23:08:45.693Z,4.55
2022-09-17T23:11:31.767Z,4.35
2022-09-17T23:14:01.832Z,3.78
2022-09-17T23:16:28.598Z,3.70
2022-09-17T23:18:55.220Z,4.85
2022-09-17T23:21:21.746Z,4.43
2022-09-17T23:23:48.923Z,4.28
2022-09-17T23:26:16.457Z,3.47
2022-09-17T23:28:42.994Z,4.30
2022-09-17T23:31:16.653Z,3.75
2022-09-17T23:33:44.183Z,3.10
2022-09-17T23:36:14.660Z,3.47
2022-09-17T23:38:42.179Z,3.17
2022-09-17T23:41:13.535Z,3.92
2022-09-17T23:43:40.138Z,4.43
2022-09-17T23:46:06.475Z,3.05
2022-09-17T23:48:35.442Z,3.42
2022-09-17T23:51:01.757Z,3.63
2022-09-17T23:53:29.674Z,3.03
2022-09-17T23:56:00.291Z,2.60
2022-09-17T23:58:29.170Z,2.83
